createdAt,value
2018-09-01T00:00:27.458Z,16.30
2018-09-01T00:02:55.820Z,16.30
2018-09-01T00:05:24.271Z,16.20
2018-09-01T00:07:52.587Z,16.20
2018-09-01T00:10:20.937Z,16.20
2018-09-01T00:12:49.251Z,16.10
2018-09-01T00:15:17.611Z,16.10
2018-09-01T00:17:45.933Z,16.10
2018-09-01T00:20:14.344Z,16.00
2018-09-01T00:22:42.704Z,16.00
2018-09-01T00:25:11.105Z,16.00
2018-09-01T00:27:39.431Z,16.00
2018-09-01T00:30:07.946Z,16.00
2018-09-01T00:32:36.318Z,15.90
2018-09-01T00:35:04.823Z,15.90
2018-09-01T00:37:38.634Z,15.80
2018-09-01T00:40:07.115Z,15.70
2018-09-01T00:42:35.449Z,15.60
2018-09-01T00:45:03.881Z,15.60
2018-09-01T00:47:32.203Z,15.50
2018-09-01T00:50:00.564Z,15.50
2018-09-01T00:52:28.875Z,15.50
2018-09-01T00:54:57.247Z,15.40
2018-09-01T00:57:25.633Z,15.20
2018-09-01T00:59:53.994Z,15.20
2018-09-01T01:02:22.340Z,15.20
2018-09-01T01:04:50.792Z,15.20
2018-09-01T01:07:19.197Z,15.20
2018-09-01T01:09:47.517Z,15.20
2018-09-01T01:12:15.971Z,15.30
2018-09-01T01:14:44.368Z,15.30
2018-09-01T01:17:12.868Z,15.30
2018-09-01T01:19:41.636Z,15.30
2018-09-01T01:22:10.017Z,15.30
2018-09-01T01:24:38.384Z,15.40
2018-09-01T01:27:06.761Z,15.40
2018-09-01T01:29:35.112Z,15.30
2018-09-01T01:32:03.473Z,15.40
2018-09-01T01:34:31.844Z,15.30
2018-09-01T01:37:00.203Z,15.30
2018-09-01T01:39:28.598Z,15.20
2018-09-01T01:41:56.974Z,15.20
2018-09-01T01:44:25.395Z,15.20
2018-09-01T01:46:53.724Z,15.20
2018-09-01T01:49:22.085Z,15.20
2018-09-01T01:51:50.457Z,15.20
2018-09-01T01:54:18.828Z,15.20
2018-09-01T01:56:47.212Z,15.20
2018-09-01T01:59:15.568Z,15.20
2018-09-01T02:01:43.900Z,15.20
2018-09-01T02:04:12.239Z,15.20
2018-09-01T02:06:40.612Z,15.10
2018-09-01T02:09:08.960Z,15.00
2018-09-01T02:11:37.325Z,15.00
2018-09-01T02:14:06.034Z,14.90
2018-09-01T02:16:34.438Z,14.90
2018-09-01T02:19:02.805Z,14.80
2018-09-01T02:21:31.150Z,14.90
2018-09-01T02:23:59.495Z,14.80
2018-09-01T02:26:27.871Z,14.80
2018-09-01T02:28:56.240Z,14.70
2018-09-01T02:31:24.635Z,14.60
2018-09-01T02:33:52.992Z,14.60
2018-09-01T02:36:21.436Z,14.60
2018-09-01T02:38:49.806Z,14.60
2018-09-01T02:41:18.204Z,14.50
2018-09-01T02:43:46.606Z,14.40
2018-09-01T02:46:14.981Z,14.50
2018-09-01T02:48:43.336Z,14.40
2018-09-01T02:51:11.687Z,14.40
2018-09-01T02:53:40.033Z,14.30
2018-09-01T02:56:08.452Z,14.20
2018-09-01T02:58:36.881Z,14.20
2018-09-01T03:01:10.845Z,14.10
2018-09-01T03:03:39.202Z,14.10
2018-09-01T03:06:07.305Z,14.00
2018-09-01T03:08:35.665Z,14.00
2018-09-01T03:11:04.033Z,13.90
2018-09-01T03:13:32.368Z,13.90
2018-09-01T03:16:00.716Z,13.90
2018-09-01T03:18:29.053Z,13.90
2018-09-01T03:20:57.416Z,13.80
2018-09-01T03:23:25.780Z,13.80
2018-09-01T03:25:54.250Z,13.80
2018-09-01T03:28:22.628Z,13.70
2018-09-01T03:30:51.005Z,13.70
2018-09-01T03:33:19.375Z,13.70
2018-09-01T03:35:47.708Z,13.70
2018-09-01T03:38:16.093Z,13.70
2018-09-01T03:40:44.479Z,13.60
2018-09-01T03:43:12.842Z,13.60
2018-09-01T03:45:41.219Z,13.50
2018-09-01T03:48:09.560Z,13.50
2018-09-01T03:50:37.963Z,13.50
2018-09-01T03:53:06.335Z,13.40
2018-09-01T03:55:34.704Z,13.40
2018-09-01T03:58:03.228Z,13.40
2018-09-01T04:00:31.608Z,13.30
2018-09-01T04:03:00.021Z,13.30
2018-09-01T04:05:28.459Z,13.20
2018-09-01T04:07:56.785Z,13.20
2018-09-01T04:10:25.261Z,13.20
2018-09-01T04:12:53.623Z,13.10
2018-09-01T04:15:22.043Z,13.00
2018-09-01T04:17:50.385Z,12.90
2018-09-01T04:20:18.757Z,12.80
2018-09-01T04:22:47.064Z,12.90
2018-09-01T04:25:15.603Z,12.80
2018-09-01T04:27:43.964Z,12.80
2018-09-01T04:30:12.313Z,12.70
2018-09-01T04:32:40.633Z,12.70
2018-09-01T04:35:09.006Z,12.70
2018-09-01T04:37:37.371Z,12.60
2018-09-01T04:40:05.917Z,12.60
2018-09-01T04:42:34.315Z,12.60
2018-09-01T04:45:02.707Z,12.50
2018-09-01T04:47:31.063Z,12.50
2018-09-01T04:49:59.443Z,12.50
2018-09-01T04:52:27.817Z,12.40
2018-09-01T04:54:56.159Z,12.40
2018-09-01T04:57:24.530Z,12.40
2018-09-01T04:59:52.883Z,12.40
2018-09-01T05:02:21.214Z,12.30
2018-09-01T05:04:49.642Z,12.30
2018-09-01T05:07:18.014Z,12.30
2018-09-01T05:09:46.346Z,12.30
2018-09-01T05:12:14.710Z,12.30
2018-09-01T05:14:43.085Z,12.20
2018-09-01T05:17:11.499Z,12.20
2018-09-01T05:19:39.895Z,12.20
2018-09-01T05:22:08.264Z,12.20
2018-09-01T05:24:36.627Z,12.20
2018-09-01T05:27:05.080Z,12.20
2018-09-01T05:29:33.512Z,12.20
2018-09-01T05:32:01.846Z,12.30
2018-09-01T05:34:30.360Z,12.30
2018-09-01T05:36:58.742Z,12.40
2018-09-01T05:39:27.090Z,12.40
2018-09-01T05:41:55.465Z,12.40
2018-09-01T05:44:23.838Z,12.50
2018-09-01T05:46:52.159Z,12.50
2018-09-01T05:49:20.506Z,12.70
2018-09-01T05:51:48.859Z,12.80
2018-09-01T05:54:17.258Z,12.90
2018-09-01T05:56:45.698Z,13.00
2018-09-01T05:59:14.062Z,13.10
2018-09-01T06:01:42.519Z,13.20
2018-09-01T06:04:10.901Z,13.30
2018-09-01T06:06:39.377Z,13.50
2018-09-01T06:09:09.356Z,13.60
2018-09-01T06:11:37.723Z,13.70
2018-09-01T06:14:06.653Z,13.80
2018-09-01T06:16:35.063Z,13.90
2018-09-01T06:19:03.649Z,14.10
2018-09-01T06:21:32.024Z,14.20
2018-09-01T06:24:00.453Z,14.30
2018-09-01T06:26:28.816Z,14.40
2018-09-01T06:29:02.520Z,14.40
2018-09-01T06:31:30.918Z,14.50
2018-09-01T06:33:59.272Z,14.60
2018-09-01T06:36:27.595Z,14.60
2018-09-01T06:38:55.965Z,14.60
2018-09-01T06:41:24.327Z,14.60
2018-09-01T06:43:52.675Z,14.70
2018-09-01T06:46:21.045Z,14.80
2018-09-01T06:48:49.804Z,15.00
2018-09-01T06:51:18.142Z,14.80
2018-09-01T06:53:46.561Z,14.80
2018-09-01T06:56:14.988Z,14.90
2018-09-01T06:58:43.430Z,14.90
2018-09-01T07:01:11.761Z,14.90
2018-09-01T07:03:40.172Z,14.90
2018-09-01T07:06:08.504Z,15.00
2018-09-01T07:08:36.930Z,15.10
2018-09-01T07:11:05.261Z,15.20
2018-09-01T07:13:33.595Z,15.20
2018-09-01T07:16:01.945Z,15.30
2018-09-01T07:18:30.296Z,15.50
2018-09-01T07:20:58.684Z,15.50
2018-09-01T07:23:27.032Z,15.70
2018-09-01T07:25:55.436Z,15.80
2018-09-01T07:28:23.807Z,15.80
2018-09-01T07:30:52.545Z,15.80
2018-09-01T07:33:20.784Z,15.80
2018-09-01T07:35:49.209Z,15.90
2018-09-01T07:38:17.591Z,16.00
2018-09-01T07:40:46.107Z,16.10
2018-09-01T07:43:14.502Z,16.20
2018-09-01T07:45:42.971Z,16.40
2018-09-01T07:48:11.364Z,16.50
2018-09-01T07:50:39.700Z,16.50
2018-09-01T07:53:08.065Z,16.60
2018-09-01T07:55:36.472Z,16.50
2018-09-01T07:58:04.878Z,16.60
2018-09-01T08:00:33.268Z,16.60
2018-09-01T08:03:01.619Z,16.50
2018-09-01T08:05:29.995Z,16.50
2018-09-01T08:07:58.334Z,16.20
2018-09-01T08:10:26.985Z,16.40
2018-09-01T08:12:55.354Z,16.50
2018-09-01T08:15:23.776Z,16.50
2018-09-01T08:17:52.284Z,16.60
2018-09-01T08:20:20.788Z,16.70
2018-09-01T08:22:49.376Z,16.70
2018-09-01T08:25:17.827Z,16.90
2018-09-01T08:27:46.277Z,17.10
2018-09-01T08:30:14.645Z,17.30
2018-09-01T08:32:43.000Z,17.70
2018-09-01T08:35:11.412Z,17.80
2018-09-01T08:37:40.824Z,17.90
2018-09-01T08:40:09.194Z,18.20
2018-09-01T08:42:37.550Z,18.40
2018-09-01T08:45:06.088Z,18.40
2018-09-01T08:47:34.440Z,18.20
2018-09-01T08:50:02.890Z,18.20
2018-09-01T08:52:31.234Z,18.20
2018-09-01T08:54:59.575Z,18.20
2018-09-01T08:57:27.927Z,18.40
2018-09-01T08:59:56.272Z,18.40
2018-09-01T09:02:24.766Z,18.40
2018-09-01T09:04:53.104Z,18.50
2018-09-01T09:07:21.433Z,18.60
2018-09-01T09:09:50.003Z,18.60
2018-09-01T09:12:18.382Z,18.80
2018-09-01T09:14:46.776Z,19.00
2018-09-01T09:17:15.264Z,18.90
2018-09-01T09:19:43.602Z,18.30
2018-09-01T09:22:12.076Z,18.10
2018-09-01T09:24:40.408Z,18.20
2018-09-01T09:27:08.799Z,18.30
2018-09-01T09:29:37.114Z,18.40
2018-09-01T09:32:05.504Z,18.50
2018-09-01T09:34:33.963Z,18.50
2018-09-01T09:37:02.246Z,18.90
2018-09-01T09:39:30.571Z,19.00
2018-09-01T09:41:58.957Z,18.90
2018-09-01T09:44:27.271Z,19.00
2018-09-01T09:46:55.617Z,19.10
2018-09-01T09:49:23.995Z,18.90
2018-09-01T09:51:52.452Z,18.90
2018-09-01T09:54:20.831Z,18.80
2018-09-01T09:56:49.141Z,18.90
2018-09-01T09:59:17.554Z,19.10
2018-09-01T10:01:45.938Z,19.40
2018-09-01T10:04:14.327Z,19.50
2018-09-01T10:06:42.689Z,19.80
2018-09-01T10:09:15.521Z,19.90
2018-09-01T10:11:44.403Z,19.80
2018-09-01T10:14:13.213Z,19.60
2018-09-01T10:16:42.160Z,19.90
2018-09-01T10:19:10.568Z,20.30
2018-09-01T10:21:39.089Z,20.30
2018-09-01T10:24:07.689Z,20.20
2018-09-01T10:26:36.079Z,20.30
2018-09-01T10:29:04.402Z,20.50
2018-09-01T10:31:32.751Z,20.20
2018-09-01T10:34:01.115Z,20.30
2018-09-01T10:36:29.484Z,20.60
2018-09-01T10:38:57.835Z,20.80
2018-09-01T10:41:26.268Z,21.00
2018-09-01T10:43:54.670Z,21.50
2018-09-01T10:46:23.105Z,21.80
2018-09-01T10:48:51.526Z,22.30
2018-09-01T10:51:19.872Z,22.60
2018-09-01T10:53:48.229Z,23.00
2018-09-01T10:56:16.670Z,23.80
2018-09-01T10:58:45.059Z,23.70
2018-09-01T11:01:13.422Z,24.20
2018-09-01T11:03:41.721Z,25.30
2018-09-01T11:06:10.117Z,25.70
2018-09-01T11:08:38.502Z,24.20
2018-09-01T11:11:07.177Z,23.70
2018-09-01T11:13:35.561Z,24.20
2018-09-01T11:16:03.972Z,24.20
2018-09-01T11:18:32.316Z,24.80
2018-09-01T11:21:00.770Z,25.00
2018-09-01T11:23:29.071Z,25.00
2018-09-01T11:25:57.493Z,24.70
2018-09-01T11:28:25.898Z,24.60
2018-09-01T11:30:54.306Z,24.30
2018-09-01T11:33:22.656Z,23.70
2018-09-01T11:35:51.034Z,23.60
2018-09-01T11:38:19.413Z,23.70
2018-09-01T11:40:47.744Z,24.00
2018-09-01T11:43:16.187Z,24.60
2018-09-01T11:45:44.465Z,24.80
2018-09-01T11:48:12.898Z,24.50
2018-09-01T11:50:41.225Z,23.30
2018-09-01T11:53:09.666Z,23.10
2018-09-01T11:55:37.938Z,23.20
2018-09-01T11:58:06.319Z,23.20
2018-09-01T12:00:34.679Z,23.20
2018-09-01T12:03:03.026Z,23.10
2018-09-01T12:05:31.387Z,23.20
2018-09-01T12:07:59.751Z,23.30
2018-09-01T12:10:28.211Z,23.80
2018-09-01T12:12:56.604Z,24.40
2018-09-01T12:15:24.971Z,24.80
2018-09-01T12:17:53.300Z,25.00
2018-09-01T12:20:21.675Z,24.30
2018-09-01T12:22:50.041Z,24.50
2018-09-01T12:25:18.401Z,24.70
2018-09-01T12:27:46.741Z,23.90
2018-09-01T12:30:15.158Z,23.70
2018-09-01T12:32:43.511Z,23.50
2018-09-01T12:35:11.923Z,23.20
2018-09-01T12:37:40.262Z,23.20
2018-09-01T12:40:08.629Z,23.10
2018-09-01T12:42:36.983Z,23.10
2018-09-01T12:45:05.928Z,23.00
2018-09-01T12:47:33.615Z,23.30
2018-09-01T12:50:02.008Z,23.50
2018-09-01T12:52:31.399Z,23.40
2018-09-01T12:54:59.803Z,23.50
2018-09-01T12:57:27.477Z,23.80
2018-09-01T12:59:55.106Z,23.70
2018-09-01T13:02:24.959Z,23.80
2018-09-01T13:04:53.382Z,23.40
2018-09-01T13:07:21.795Z,23.10
2018-09-01T13:09:50.155Z,23.20
2018-09-01T13:12:18.504Z,23.10
2018-09-01T13:14:46.882Z,23.40
2018-09-01T13:17:15.189Z,23.60
2018-09-01T13:19:44.175Z,24.10
2018-09-01T13:22:12.489Z,24.70
2018-09-01T13:24:40.881Z,24.80
2018-09-01T13:27:09.248Z,25.40
2018-09-01T13:29:37.615Z,26.10
2018-09-01T13:32:06.159Z,26.70
2018-09-01T13:34:34.581Z,27.30
2018-09-01T13:37:02.973Z,28.10
2018-09-01T13:39:31.338Z,28.50
2018-09-01T13:41:59.676Z,29.00
2018-09-01T13:44:28.021Z,29.10
2018-09-01T13:46:56.351Z,28.50
2018-09-01T13:49:24.732Z,28.10
2018-09-01T13:51:53.133Z,27.60
2018-09-01T13:54:21.490Z,27.70
2018-09-01T13:56:49.887Z,27.60
2018-09-01T13:59:18.251Z,28.10
2018-09-01T14:01:46.576Z,28.10
2018-09-01T14:04:15.033Z,28.40
2018-09-01T14:06:43.385Z,29.10
2018-09-01T14:09:11.862Z,28.60
2018-09-01T14:11:40.333Z,28.50
2018-09-01T14:14:08.738Z,28.80
2018-09-01T14:16:37.164Z,28.90
2018-09-01T14:19:05.844Z,28.30
2018-09-01T14:21:34.190Z,27.60
2018-09-01T14:24:02.524Z,27.40
2018-09-01T14:26:30.906Z,26.90
2018-09-01T14:28:59.268Z,26.40
2018-09-01T14:31:27.608Z,26.50
2018-09-01T14:33:56.000Z,27.00
2018-09-01T14:36:24.440Z,26.60
2018-09-01T14:38:52.753Z,26.20
2018-09-01T14:41:21.221Z,25.60
2018-09-01T14:43:49.654Z,25.60
2018-09-01T14:46:18.080Z,26.60
2018-09-01T14:48:46.419Z,27.40
2018-09-01T14:51:14.796Z,27.40
2018-09-01T14:53:43.139Z,26.80
2018-09-01T14:56:11.510Z,27.00
2018-09-01T14:58:39.847Z,26.40
2018-09-01T15:01:08.219Z,26.20
2018-09-01T15:03:36.596Z,26.20
2018-09-01T15:06:05.092Z,26.80
2018-09-01T15:08:33.437Z,27.50
2018-09-01T15:11:01.810Z,27.60
2018-09-01T15:13:30.246Z,27.70
2018-09-01T15:15:58.686Z,27.60
2018-09-01T15:18:27.043Z,27.70
2018-09-01T15:20:55.428Z,27.30
2018-09-01T15:23:23.897Z,27.30
2018-09-01T15:25:52.281Z,27.00
2018-09-01T15:28:20.703Z,26.60
2018-09-01T15:30:49.065Z,26.60
2018-09-01T15:33:17.408Z,26.70
2018-09-01T15:35:45.777Z,26.90
2018-09-01T15:38:14.142Z,26.70
2018-09-01T15:40:42.536Z,26.50
2018-09-01T15:43:10.919Z,26.10
2018-09-01T15:45:39.243Z,25.70
2018-09-01T15:48:07.601Z,25.80
2018-09-01T15:50:36.050Z,25.80
2018-09-01T15:53:04.364Z,25.80
2018-09-01T15:55:32.773Z,25.70
2018-09-01T15:58:01.135Z,25.70
2018-09-01T16:00:29.568Z,25.40
2018-09-01T16:02:57.991Z,25.70
2018-09-01T16:05:26.452Z,25.70
2018-09-01T16:07:54.820Z,25.80
2018-09-01T16:10:23.149Z,25.60
2018-09-01T16:12:51.552Z,25.40
2018-09-01T16:15:20.037Z,24.90
2018-09-01T16:17:48.614Z,24.40
2018-09-01T16:20:17.040Z,24.50
2018-09-01T16:22:45.388Z,24.50
2018-09-01T16:25:13.800Z,24.50
2018-09-01T16:27:42.242Z,24.20
2018-09-01T16:30:10.645Z,23.60
2018-09-01T16:32:39.003Z,23.70
2018-09-01T16:35:07.384Z,23.70
2018-09-01T16:37:35.908Z,23.60
2018-09-01T16:40:04.764Z,23.60
2018-09-01T16:42:33.133Z,23.70
2018-09-01T16:45:01.487Z,23.50
2018-09-01T16:47:29.875Z,23.40
2018-09-01T16:49:58.232Z,23.20
2018-09-01T16:52:26.950Z,23.20
2018-09-01T16:54:55.271Z,23.20
2018-09-01T16:57:23.732Z,23.20
2018-09-01T16:59:52.168Z,23.10
2018-09-01T17:02:20.857Z,22.90
2018-09-01T17:04:49.655Z,22.80
2018-09-01T17:07:21.266Z,22.90
2018-09-01T17:09:51.310Z,22.90
2018-09-01T17:12:21.684Z,22.80
2018-09-01T17:14:52.446Z,22.70
2018-09-01T17:17:23.244Z,22.60
2018-09-01T17:19:51.808Z,22.60
2018-09-01T17:22:26.309Z,22.60
2018-09-01T17:24:54.663Z,22.60
2018-09-01T17:27:23.076Z,22.50
2018-09-01T17:29:51.481Z,22.50
2018-09-01T17:32:19.891Z,22.50
2018-09-01T17:34:48.692Z,22.50
2018-09-01T17:37:17.077Z,22.20
2018-09-01T17:39:45.428Z,22.20
2018-09-01T17:42:13.809Z,22.00
2018-09-01T17:44:42.228Z,22.00
2018-09-01T17:47:10.612Z,21.90
2018-09-01T17:49:39.031Z,21.70
2018-09-01T17:52:07.348Z,21.50
2018-09-01T17:54:35.965Z,21.30
2018-09-01T17:57:04.452Z,21.20
2018-09-01T17:59:32.820Z,21.10
2018-09-01T18:02:01.364Z,21.00
2018-09-01T18:04:29.779Z,20.90
2018-09-01T18:06:58.229Z,20.80
2018-09-01T18:09:26.629Z,20.70
2018-09-01T18:11:55.093Z,20.80
2018-09-01T18:14:23.494Z,20.70
2018-09-01T18:16:51.900Z,20.50
2018-09-01T18:19:20.427Z,20.30
2018-09-01T18:21:48.794Z,20.20
2018-09-01T18:24:17.179Z,20.20
2018-09-01T18:26:45.579Z,20.20
2018-09-01T18:29:13.953Z,20.20
2018-09-01T18:31:42.351Z,20.10
2018-09-01T18:34:10.720Z,20.10
2018-09-01T18:36:39.157Z,20.10
2018-09-01T18:39:08.932Z,20.00
2018-09-01T18:41:37.396Z,20.00
2018-09-01T18:44:05.781Z,19.90
2018-09-01T18:46:34.197Z,19.80
2018-09-01T18:49:02.929Z,19.70
2018-09-01T18:51:31.701Z,19.70
2018-09-01T18:54:00.091Z,19.60
2018-09-01T18:56:28.508Z,19.60
2018-09-01T18:58:56.939Z,19.60
2018-09-01T19:01:25.325Z,19.50
2018-09-01T19:03:53.689Z,19.50
2018-09-01T19:06:22.144Z,19.40
2018-09-01T19:08:50.546Z,19.40
2018-09-01T19:11:18.916Z,19.30
2018-09-01T19:13:47.336Z,19.30
2018-09-01T19:16:15.639Z,19.30
2018-09-01T19:18:44.047Z,19.20
2018-09-01T19:21:12.537Z,19.20
2018-09-01T19:23:40.886Z,19.20
2018-09-01T19:26:09.304Z,19.20
2018-09-01T19:28:37.759Z,19.20
2018-09-01T19:31:06.178Z,19.20
2018-09-01T19:33:34.592Z,19.20
2018-09-01T19:36:02.968Z,19.20
2018-09-01T19:38:31.365Z,19.20
2018-09-01T19:40:59.922Z,19.20
2018-09-01T19:43:28.297Z,19.20
2018-09-01T19:45:56.837Z,19.20
2018-09-01T19:48:25.282Z,19.20
2018-09-01T19:50:54.463Z,19.20
2018-09-01T19:53:23.105Z,19.20
2018-09-01T19:55:52.214Z,19.20
2018-09-01T19:58:20.988Z,19.10
2018-09-01T20:00:49.841Z,19.10
2018-09-01T20:03:18.322Z,19.00
2018-09-01T20:05:46.728Z,19.00
2018-09-01T20:08:15.224Z,19.00
2018-09-01T20:10:43.778Z,18.90
2018-09-01T20:13:12.467Z,18.90
2018-09-01T20:15:41.252Z,18.90
2018-09-01T20:18:09.984Z,18.90
2018-09-01T20:20:38.462Z,18.80
2018-09-01T20:23:07.204Z,18.70
2018-09-01T20:25:35.574Z,18.60
2018-09-01T20:28:04.004Z,18.50
2018-09-01T20:30:32.589Z,18.40
2018-09-01T20:33:01.441Z,18.40
2018-09-01T20:35:35.130Z,18.40
2018-09-01T20:38:03.512Z,18.40
2018-09-01T20:40:32.244Z,18.30
2018-09-01T20:43:00.889Z,18.30
2018-09-01T20:45:29.440Z,18.20
2018-09-01T20:47:57.866Z,18.20
2018-09-01T20:50:26.231Z,18.10
2018-09-01T20:52:54.583Z,18.00
2018-09-01T20:55:23.057Z,18.00
2018-09-01T20:57:51.612Z,17.90
2018-09-01T21:00:20.129Z,17.90
2018-09-01T21:02:48.888Z,17.80
2018-09-01T21:05:17.258Z,17.70
2018-09-01T21:07:45.674Z,17.70
2018-09-01T21:10:14.093Z,17.70
2018-09-01T21:12:42.583Z,17.50
2018-09-01T21:15:11.200Z,17.50
2018-09-01T21:17:39.622Z,17.40
2018-09-01T21:20:08.184Z,17.40
2018-09-01T21:22:36.553Z,17.40
2018-09-01T21:25:05.131Z,17.40
2018-09-01T21:27:33.586Z,17.40
2018-09-01T21:30:02.249Z,17.30
2018-09-01T21:32:30.817Z,17.30
2018-09-01T21:34:59.297Z,17.20
2018-09-01T21:37:27.800Z,17.10
2018-09-01T21:39:56.204Z,17.10
2018-09-01T21:42:24.558Z,17.10
2018-09-01T21:44:53.133Z,17.10
2018-09-01T21:47:21.851Z,17.00
2018-09-01T21:49:50.480Z,17.00
2018-09-01T21:52:18.955Z,16.90
2018-09-01T21:54:47.406Z,16.90
2018-09-01T21:57:15.763Z,16.90
2018-09-01T21:59:44.180Z,16.80
2018-09-01T22:02:18.305Z,16.80
2018-09-01T22:04:52.130Z,16.70
2018-09-01T22:07:21.732Z,16.70
2018-09-01T22:09:51.659Z,16.60
2018-09-01T22:12:22.799Z,16.60
2018-09-01T22:14:54.293Z,16.50
2018-09-01T22:17:24.071Z,16.50
2018-09-01T22:19:54.677Z,16.40
2018-09-01T22:22:29.363Z,16.30
2018-09-01T22:24:58.111Z,16.20
2018-09-01T22:27:26.483Z,16.20
2018-09-01T22:29:54.900Z,16.10
2018-09-01T22:32:31.547Z,16.00
2018-09-01T22:35:02.441Z,16.00
2018-09-01T22:37:31.934Z,16.00
2018-09-01T22:40:02.577Z,15.90
2018-09-01T22:42:33.792Z,15.90
2018-09-01T22:45:04.870Z,15.90
2018-09-01T22:47:42.296Z,15.80
2018-09-01T22:50:13.099Z,15.80
2018-09-01T22:52:44.029Z,15.70
2018-09-01T22:55:12.996Z,15.60
2018-09-01T22:57:41.394Z,15.60
2018-09-01T23:00:09.924Z,15.50
2018-09-01T23:02:38.277Z,15.40
2018-09-01T23:05:06.648Z,15.40
2018-09-01T23:07:35.024Z,15.40
2018-09-01T23:10:03.420Z,15.30
2018-09-01T23:12:31.798Z,15.30
2018-09-01T23:15:00.224Z,15.20
2018-09-01T23:17:28.555Z,15.20
2018-09-01T23:19:56.948Z,15.20
2018-09-01T23:22:25.223Z,15.10
2018-09-01T23:24:53.561Z,15.00
2018-09-01T23:27:21.928Z,15.00
2018-09-01T23:29:50.281Z,14.90
2018-09-01T23:32:18.626Z,14.80
2018-09-01T23:34:47.053Z,14.80
2018-09-01T23:37:15.388Z,14.80
2018-09-01T23:39:43.721Z,14.70
2018-09-01T23:42:12.134Z,14.70
2018-09-01T23:44:40.493Z,14.70
2018-09-01T23:47:08.860Z,14.80
2018-09-01T23:49:37.181Z,14.80
2018-09-01T23:52:05.542Z,14.80
2018-09-01T23:54:33.913Z,14.80
2018-09-01T23:57:02.288Z,14.90
2018-09-01T23:59:30.603Z,14.90
